createdAt,value
2023-01-10T00:00:35.182Z,99.90
2023-01-10T00:03:02.988Z,99.90
2023-01-10T00:05:29.952Z,99.90
2023-01-10T00:07:56.758Z,99.90
2023-01-10T00:10:23.489Z,99.90
2023-01-10T00:13:08.781Z,99.90
2023-01-10T00:15:36.733Z,99.90
2023-01-10T00:18:04.081Z,99.90
2023-01-10T00:20:31.317Z,99.90
2023-01-10T00:22:58.190Z,99.90
2023-01-10T00:25:25.378Z,99.90
2023-01-10T00:28:13.078Z,99.90
2023-01-10T00:30:40.630Z,99.90
2023-01-10T00:33:08.531Z,99.90
2023-01-10T00:35:35.543Z,99.90
2023-01-10T00:38:05.785Z,99.90
2023-01-10T00:40:33.719Z,99.90
2023-01-10T00:43:19.692Z,99.90
2023-01-10T00:45:47.395Z,99.90
2023-01-10T00:48:15.097Z,99.90
2023-01-10T00:50:42.192Z,99.90
2023-01-10T00:53:08.984Z,99.90
2023-01-10T00:55:36.362Z,99.90
2023-01-10T00:58:03.784Z,99.90
2023-01-10T01:00:30.658Z,99.90
2023-01-10T01:02:57.478Z,99.90
2023-01-10T01:05:24.281Z,99.90
2023-01-10T01:07:52.044Z,99.90
2023-01-10T01:10:28.462Z,99.90
2023-01-10T01:13:00.590Z,99.90
2023-01-10T01:15:27.866Z,99.90
2023-01-10T01:17:55.322Z,99.90
2023-01-10T01:20:22.079Z,99.90
2023-01-10T01:22:48.869Z,99.90
2023-01-10T01:25:15.802Z,99.90
2023-01-10T01:27:42.471Z,99.90
2023-01-10T01:30:11.222Z,99.90
2023-01-10T01:32:38.147Z,99.90
2023-01-10T01:35:06.299Z,99.90
2023-01-10T01:37:33.696Z,99.90
2023-01-10T01:40:00.392Z,99.90
2023-01-10T01:42:30.413Z,99.90
2023-01-10T01:45:23.505Z,99.90
2023-01-10T01:48:22.589Z,99.90
2023-01-10T01:50:55.381Z,99.90
2023-01-10T01:53:21.978Z,99.90
2023-01-10T01:55:50.463Z,99.90
2023-01-10T01:58:24.645Z,99.90
2023-01-10T02:00:51.497Z,99.90
2023-01-10T02:03:18.676Z,99.90
2023-01-10T02:05:46.134Z,99.90
2023-01-10T02:08:13.945Z,99.90
2023-01-10T02:11:01.091Z,99.90
2023-01-10T02:13:28.363Z,99.90
2023-01-10T02:15:55.205Z,99.90
2023-01-10T02:18:22.987Z,99.90
2023-01-10T02:20:52.436Z,99.90
2023-01-10T02:23:28.357Z,99.90
2023-01-10T02:26:26.925Z,99.90
2023-01-10T02:29:30.496Z,99.90
2023-01-10T02:32:03.303Z,99.90
2023-01-10T02:34:46.133Z,99.90
2023-01-10T02:37:39.560Z,99.90
2023-01-10T02:40:18.214Z,99.90
2023-01-10T02:42:55.308Z,99.90
2023-01-10T02:45:33.856Z,99.90
2023-01-10T02:48:00.733Z,99.90
2023-01-10T02:50:44.199Z,99.90
2023-01-10T02:53:12.019Z,99.90
2023-01-10T02:56:13.652Z,99.90
2023-01-10T02:58:49.480Z,99.90
2023-01-10T03:01:35.321Z,99.90
2023-01-10T03:04:09.012Z,99.90
2023-01-10T03:06:54.460Z,99.90
2023-01-10T03:09:34.316Z,99.90
2023-01-10T03:12:13.992Z,99.90
2023-01-10T03:14:42.589Z,99.90
2023-01-10T03:17:13.219Z,99.90
2023-01-10T03:19:54.766Z,99.90
2023-01-10T03:22:22.371Z,99.90
2023-01-10T03:24:52.739Z,99.90
2023-01-10T03:27:27.396Z,99.90
2023-01-10T03:30:07.094Z,99.90
2023-01-10T03:32:39.903Z,99.90
2023-01-10T03:35:07.420Z,99.90
2023-01-10T03:37:52.652Z,99.90
2023-01-10T03:40:33.425Z,99.90
2023-01-10T03:44:00.850Z,99.90
2023-01-10T03:46:46.651Z,99.90
2023-01-10T03:56:49.936Z,99.90
2023-01-10T03:59:22.759Z,99.90
2023-01-10T04:01:49.529Z,99.90
2023-01-10T04:04:16.333Z,99.90
2023-01-10T04:06:43.070Z,99.90
2023-01-10T04:09:10.447Z,99.90
2023-01-10T04:11:37.531Z,99.90
2023-01-10T04:14:04.521Z,99.90
2023-01-10T04:16:31.341Z,99.90
2023-01-10T04:18:57.984Z,99.90
2023-01-10T04:21:24.639Z,99.90
2023-01-10T04:23:51.473Z,99.90
2023-01-10T04:26:18.120Z,99.90
2023-01-10T04:28:44.879Z,99.90
2023-01-10T04:31:11.654Z,99.90
2023-01-10T04:33:40.814Z,99.90
2023-01-10T04:36:07.763Z,99.90
2023-01-10T04:38:34.703Z,99.90
2023-01-10T04:41:01.449Z,99.90
2023-01-10T04:43:28.222Z,99.90
2023-01-10T04:45:54.963Z,99.90
2023-01-10T04:48:21.649Z,99.90
2023-01-10T04:50:52.123Z,99.90
2023-01-10T04:53:18.950Z,99.90
2023-01-10T04:55:46.475Z,99.90
2023-01-10T04:58:13.487Z,99.90
2023-01-10T05:00:40.452Z,99.90
2023-01-10T05:03:07.502Z,99.90
2023-01-10T05:05:35.058Z,99.90
2023-01-10T05:08:01.915Z,99.90
2023-01-10T05:10:28.545Z,99.90
2023-01-10T05:12:55.289Z,99.90
2023-01-10T05:15:23.183Z,99.90
2023-01-10T05:17:51.355Z,99.90
2023-01-10T05:20:18.255Z,99.90
2023-01-10T05:22:45.876Z,99.90
2023-01-10T05:25:12.619Z,99.90
2023-01-10T05:27:42.939Z,99.90
2023-01-10T05:30:13.480Z,99.90
2023-01-10T05:32:40.570Z,99.90
2023-01-10T05:35:07.646Z,99.90
2023-01-10T05:37:34.334Z,99.90
2023-01-10T05:40:01.039Z,99.90
2023-01-10T05:42:27.730Z,99.90
2023-01-10T05:44:54.439Z,99.90
2023-01-10T05:47:21.132Z,99.90
2023-01-10T05:49:47.839Z,99.90
2023-01-10T05:52:15.042Z,99.90
2023-01-10T05:54:41.758Z,99.90
2023-01-10T05:57:08.445Z,99.90
2023-01-10T05:59:35.392Z,99.90
2023-01-10T06:02:02.197Z,99.90
2023-01-10T06:04:28.963Z,99.90
2023-01-10T06:06:55.671Z,99.90
2023-01-10T06:09:22.760Z,99.90
2023-01-10T06:11:49.723Z,99.90
2023-01-10T06:14:19.272Z,99.90
2023-01-10T06:16:47.187Z,99.90
2023-01-10T06:19:14.160Z,99.90
2023-01-10T06:21:41.005Z,99.90
2023-01-10T06:24:08.043Z,99.90
2023-01-10T06:26:34.872Z,99.90
2023-01-10T06:29:01.602Z,99.90
2023-01-10T06:31:28.317Z,99.90
2023-01-10T06:33:55.081Z,99.90
2023-01-10T06:36:21.811Z,99.90
2023-01-10T06:38:48.599Z,99.90
2023-01-10T06:41:15.424Z,99.90
2023-01-10T06:43:45.341Z,99.90
2023-01-10T06:46:18.255Z,99.90
2023-01-10T06:48:46.113Z,99.90
2023-01-10T06:51:14.412Z,99.90
2023-01-10T06:53:41.778Z,99.90
2023-01-10T06:56:09.855Z,99.90
2023-01-10T06:58:38.795Z,99.90
2023-01-10T07:01:15.484Z,99.90
2023-01-10T07:03:42.516Z,99.90
2023-01-10T07:06:10.285Z,99.90
2023-01-10T07:08:45.628Z,99.90
2023-01-10T07:11:14.498Z,99.90
2023-01-10T07:13:41.315Z,99.90
2023-01-10T07:16:12.955Z,99.90
2023-01-10T07:18:41.767Z,99.90
2023-01-10T07:21:09.800Z,99.90
2023-01-10T07:23:36.758Z,99.90
2023-01-10T07:26:08.747Z,99.90
2023-01-10T07:28:35.678Z,99.90
2023-01-10T07:31:04.428Z,99.90
2023-01-10T07:33:31.984Z,99.90
2023-01-10T07:36:01.157Z,99.90
2023-01-10T07:38:28.447Z,99.90
2023-01-10T07:40:55.283Z,99.90
2023-01-10T07:43:22.323Z,99.90
2023-01-10T07:45:49.052Z,99.90
2023-01-10T07:48:15.836Z,99.90
2023-01-10T07:50:42.519Z,99.90
2023-01-10T07:53:10.175Z,99.90
2023-01-10T07:55:39.806Z,99.90
2023-01-10T07:58:08.046Z,99.90
2023-01-10T08:00:35.660Z,99.90
2023-01-10T08:03:02.607Z,99.90
2023-01-10T08:05:29.503Z,99.90
2023-01-10T08:07:59.991Z,99.90
2023-01-10T08:10:27.569Z,99.90
2023-01-10T08:12:54.858Z,99.90
2023-01-10T08:15:21.757Z,99.90
2023-01-10T08:17:48.567Z,99.90
2023-01-10T08:20:15.601Z,99.90
2023-01-10T08:22:42.634Z,99.90
2023-01-10T08:25:09.794Z,99.90
2023-01-10T08:27:36.992Z,99.90
2023-01-10T08:30:05.359Z,99.90
2023-01-10T08:32:32.077Z,99.90
2023-01-10T08:34:58.808Z,99.90
2023-01-10T08:37:25.608Z,99.90
2023-01-10T08:39:52.323Z,99.90
2023-01-10T08:42:19.494Z,99.90
2023-01-10T08:44:46.732Z,99.90
2023-01-10T08:47:13.603Z,99.90
2023-01-10T08:49:40.484Z,99.90
2023-01-10T08:52:07.251Z,99.90
2023-01-10T08:54:34.837Z,99.90
2023-01-10T08:57:01.562Z,99.90
2023-01-10T08:59:28.859Z,99.90
2023-01-10T09:01:58.462Z,99.90
2023-01-10T09:04:26.301Z,99.90
2023-01-10T09:06:53.049Z,99.90
2023-01-10T09:09:19.760Z,99.90
2023-01-10T09:11:46.671Z,99.90
2023-01-10T09:14:13.411Z,99.90
2023-01-10T09:16:40.187Z,99.90
2023-01-10T09:19:06.972Z,99.90
2023-01-10T09:21:33.732Z,99.90
2023-01-10T09:24:00.504Z,99.90
2023-01-10T09:26:27.235Z,99.90
2023-01-10T09:28:53.907Z,99.90
2023-01-10T09:31:20.689Z,99.90
2023-01-10T09:33:49.760Z,99.90
2023-01-10T09:36:16.666Z,99.90
2023-01-10T09:38:44.326Z,99.90
2023-01-10T09:41:29.967Z,99.90
2023-01-10T09:43:57.640Z,99.90
2023-01-10T09:46:50.161Z,99.90
2023-01-10T09:49:35.428Z,99.90
2023-01-10T09:52:08.581Z,99.90
2023-01-10T09:54:42.173Z,99.90
2023-01-10T09:57:17.387Z,99.90
2023-01-10T09:59:45.706Z,99.90
2023-01-10T10:02:20.736Z,99.90
2023-01-10T10:05:14.401Z,99.90
2023-01-10T10:07:41.435Z,99.90
2023-01-10T10:10:16.445Z,99.90
2023-01-10T10:12:55.204Z,99.90
2023-01-10T10:15:37.308Z,99.90
2023-01-10T10:18:32.800Z,99.90
2023-01-10T10:21:21.188Z,99.90
2023-01-10T10:23:59.801Z,99.90
2023-01-10T10:27:01.283Z,99.90
2023-01-10T10:29:35.191Z,99.90
2023-01-10T10:32:14.003Z,99.90
2023-01-10T10:34:47.920Z,99.90
2023-01-10T10:37:32.913Z,99.90
2023-01-10T10:40:32.332Z,99.90
2023-01-10T10:43:05.186Z,99.90
2023-01-10T10:45:50.628Z,99.90
2023-01-10T10:48:36.528Z,99.90
2023-01-10T10:51:27.925Z,99.90
2023-01-10T10:53:58.582Z,99.90
2023-01-10T10:56:26.726Z,99.90
2023-01-10T10:58:57.126Z,99.90
2023-01-10T11:01:26.384Z,99.90
2023-01-10T11:03:58.576Z,99.90
2023-01-10T11:06:29.342Z,99.90
2023-01-10T11:09:00.036Z,99.90
2023-01-10T11:11:39.653Z,99.90
2023-01-10T11:14:08.533Z,99.90
2023-01-10T11:16:42.273Z,99.90
2023-01-10T11:19:19.462Z,99.90
2023-01-10T11:22:06.639Z,99.90
2023-01-10T11:24:50.689Z,99.90
2023-01-10T11:27:21.728Z,99.90
2023-01-10T11:29:51.475Z,99.90
2023-01-10T11:32:23.071Z,99.90
2023-01-10T11:34:59.069Z,99.90
2023-01-10T11:37:32.630Z,99.90
2023-01-10T11:40:24.236Z,99.90
2023-01-10T11:42:54.874Z,99.90
2023-01-10T11:45:21.886Z,99.90
2023-01-10T11:48:05.894Z,99.90
2023-01-10T11:50:42.395Z,99.90
2023-01-10T11:53:33.884Z,99.90
2023-01-10T11:56:01.213Z,99.90
2023-01-10T11:58:34.441Z,99.90
2023-01-10T12:01:01.705Z,99.90
2023-01-10T12:03:30.691Z,99.90
2023-01-10T12:06:00.893Z,99.90
2023-01-10T12:08:31.310Z,99.90
2023-01-10T12:11:01.914Z,99.90
2023-01-10T12:13:30.745Z,99.90
2023-01-10T12:16:26.247Z,99.90
2023-01-10T12:18:59.982Z,99.90
2023-01-10T12:21:32.178Z,99.90
2023-01-10T12:24:03.969Z,99.90
2023-01-10T12:26:33.005Z,99.90
2023-01-10T12:29:08.669Z,99.90
2023-01-10T12:31:39.124Z,99.90
2023-01-10T12:34:20.811Z,99.90
2023-01-10T12:37:09.146Z,99.90
2023-01-10T12:39:47.931Z,99.90
2023-01-10T12:42:45.795Z,99.90
2023-01-10T12:45:27.043Z,99.90
2023-01-10T12:48:05.626Z,99.70
2023-01-10T12:50:40.087Z,99.00
2023-01-10T12:53:09.570Z,99.00
2023-01-10T12:55:42.749Z,99.20
2023-01-10T12:58:39.257Z,98.90
2023-01-10T13:01:07.782Z,98.30
2023-01-10T13:03:35.513Z,98.80
2023-01-10T13:06:03.383Z,98.60
2023-01-10T13:08:33.758Z,98.40
2023-01-10T13:11:02.015Z,98.50
2023-01-10T13:13:39.274Z,98.70
2023-01-10T13:16:06.126Z,98.40
2023-01-10T13:18:33.049Z,98.40
2023-01-10T13:21:13.349Z,98.10
2023-01-10T13:24:05.488Z,98.80
2023-01-10T13:27:00.222Z,98.10
2023-01-10T13:29:37.543Z,98.20
2023-01-10T13:32:28.022Z,98.80
2023-01-10T13:34:56.596Z,98.20
2023-01-10T13:37:27.576Z,98.20
2023-01-10T13:39:57.649Z,97.90
2023-01-10T13:42:47.540Z,98.20
2023-01-10T13:45:16.295Z,97.90
2023-01-10T13:47:43.480Z,97.90
2023-01-10T13:50:36.597Z,97.90
2023-01-10T13:53:08.104Z,97.90
2023-01-10T13:55:46.077Z,98.10
2023-01-10T13:58:15.940Z,98.10
2023-01-10T14:01:09.532Z,97.50
2023-01-10T14:03:39.235Z,96.60
2023-01-10T14:06:29.144Z,96.80
2023-01-10T14:09:05.717Z,96.20
2023-01-10T14:11:44.768Z,96.50
2023-01-10T14:14:24.364Z,96.60
2023-01-10T14:17:21.380Z,96.90
2023-01-10T14:19:57.845Z,96.80
2023-01-10T14:22:33.676Z,97.00
2023-01-10T14:25:03.294Z,96.90
2023-01-10T14:27:46.152Z,97.10
2023-01-10T14:30:23.334Z,97.10
2023-01-10T14:32:53.694Z,97.10
2023-01-10T14:35:24.637Z,97.00
2023-01-10T14:37:58.538Z,96.40
2023-01-10T14:40:40.828Z,96.40
2023-01-10T14:43:13.954Z,96.60
2023-01-10T14:45:51.503Z,95.90
2023-01-10T14:48:36.086Z,96.10
2023-01-10T14:51:24.662Z,95.90
2023-01-10T14:54:14.847Z,96.20
2023-01-10T14:56:43.964Z,96.50
2023-01-10T14:59:22.499Z,96.30
2023-01-10T15:01:55.443Z,96.10
2023-01-10T15:04:25.499Z,96.20
2023-01-10T15:06:53.589Z,96.50
2023-01-10T15:09:20.790Z,96.70
2023-01-10T15:11:49.191Z,96.90
2023-01-10T15:14:18.915Z,97.00
2023-01-10T15:16:47.590Z,96.90
2023-01-10T15:19:19.147Z,97.20
2023-01-10T15:21:46.716Z,97.30
2023-01-10T15:24:34.761Z,97.40
2023-01-10T15:27:13.283Z,97.50
2023-01-10T15:29:46.942Z,97.50
2023-01-10T15:32:34.210Z,97.50
2023-01-10T15:35:01.919Z,97.50
2023-01-10T15:37:35.219Z,97.30
2023-01-10T15:40:03.915Z,97.40
2023-01-10T15:42:31.638Z,97.40
2023-01-10T15:45:16.925Z,97.60
2023-01-10T15:47:50.917Z,97.70
2023-01-10T15:50:27.345Z,97.70
2023-01-10T15:52:58.911Z,97.70
2023-01-10T15:55:39.278Z,97.70
2023-01-10T15:58:20.038Z,97.50
2023-01-10T16:00:48.446Z,97.70
2023-01-10T16:03:43.449Z,97.70
2023-01-10T16:06:25.181Z,97.80
2023-01-10T16:09:01.745Z,97.70
2023-01-10T16:11:49.987Z,97.80
2023-01-10T16:14:16.638Z,97.80
2023-01-10T16:16:43.347Z,97.90
2023-01-10T16:19:10.391Z,98.00
2023-01-10T16:21:41.393Z,98.00
2023-01-10T16:24:19.924Z,97.80
2023-01-10T16:26:48.693Z,98.10
2023-01-10T16:29:15.747Z,98.00
2023-01-10T16:31:42.874Z,98.00
2023-01-10T16:34:09.972Z,98.00
2023-01-10T16:36:36.726Z,98.10
2023-01-10T16:39:08.302Z,98.00
2023-01-10T16:41:53.758Z,98.10
2023-01-10T16:44:20.497Z,98.20
2023-01-10T16:46:48.090Z,98.10
2023-01-10T16:49:15.735Z,98.20
2023-01-10T16:51:42.447Z,98.10
2023-01-10T16:54:19.559Z,98.10
2023-01-10T16:56:48.142Z,98.10
2023-01-10T16:59:17.862Z,98.10
2023-01-10T17:01:49.747Z,98.00
2023-01-10T17:04:24.759Z,98.00
2023-01-10T17:06:51.489Z,98.00
2023-01-10T17:12:39.177Z,97.90
2023-01-10T17:15:08.412Z,97.90
2023-01-10T17:17:35.263Z,98.00
2023-01-10T17:20:02.131Z,98.00
2023-01-10T17:22:29.522Z,98.00
2023-01-10T17:24:56.297Z,98.10
2023-01-10T17:27:22.991Z,98.10
2023-01-10T17:29:49.708Z,98.20
2023-01-10T17:32:16.381Z,97.80
2023-01-10T17:34:43.099Z,97.80
2023-01-10T17:37:10.065Z,97.80
2023-01-10T17:39:37.881Z,97.80
2023-01-10T17:42:05.893Z,97.60
2023-01-10T17:44:32.703Z,97.80
2023-01-10T17:46:59.575Z,97.80
2023-01-10T17:49:26.247Z,97.80
2023-01-10T17:51:54.734Z,97.80
2023-01-10T17:54:21.933Z,97.80
2023-01-10T17:56:48.734Z,97.70
2023-01-10T17:59:15.563Z,97.60
2023-01-10T18:01:42.403Z,97.70
2023-01-10T18:04:09.145Z,97.60
2023-01-10T18:06:36.118Z,97.70
2023-01-10T18:09:04.296Z,97.80
2023-01-10T18:11:32.940Z,98.20
2023-01-10T18:13:59.985Z,97.90
2023-01-10T18:16:27.456Z,98.00
2023-01-10T18:18:54.167Z,97.90
2023-01-10T18:21:20.954Z,97.80
2023-01-10T18:23:49.872Z,97.90
2023-01-10T18:26:16.647Z,97.80
2023-01-10T18:28:44.400Z,97.80
2023-01-10T18:31:18.626Z,97.70
2023-01-10T18:33:47.131Z,97.70
2023-01-10T18:36:21.956Z,97.70
2023-01-10T18:38:49.621Z,97.70
2023-01-10T18:41:18.450Z,98.10
2023-01-10T18:43:45.752Z,97.60
2023-01-10T18:46:19.455Z,97.60
2023-01-10T18:48:47.129Z,97.60
2023-01-10T18:51:14.797Z,97.70
2023-01-10T18:53:42.773Z,97.70
2023-01-10T18:56:10.610Z,97.70
2023-01-10T18:58:39.846Z,97.60
2023-01-10T19:01:18.194Z,97.70
2023-01-10T19:03:45.810Z,97.70
2023-01-10T19:06:16.434Z,97.60
2023-01-10T19:08:44.761Z,97.60
2023-01-10T19:11:15.193Z,97.80
2023-01-10T19:13:44.498Z,98.00
2023-01-10T19:16:16.050Z,97.90
2023-01-10T19:18:44.124Z,97.70
2023-01-10T19:21:15.539Z,97.80
2023-01-10T19:23:47.670Z,97.70
2023-01-10T19:26:15.076Z,97.80
2023-01-10T19:28:43.349Z,97.80
2023-01-10T19:31:18.576Z,97.90
2023-01-10T19:33:47.626Z,97.90
2023-01-10T19:36:15.743Z,97.90
2023-01-10T19:38:42.881Z,98.00
2023-01-10T19:41:10.266Z,99.90
2023-01-10T19:43:37.069Z,99.90
2023-01-10T19:46:08.376Z,99.90
2023-01-10T19:48:38.524Z,99.90
2023-01-10T19:51:10.531Z,99.90
2023-01-10T19:53:40.955Z,99.20
2023-01-10T19:56:09.994Z,98.40
2023-01-10T19:58:38.011Z,98.50
2023-01-10T20:01:12.353Z,98.70
2023-01-10T20:03:42.257Z,98.40
2023-01-10T20:06:11.002Z,98.40
2023-01-10T20:08:37.818Z,98.40
2023-01-10T20:11:06.182Z,98.40
2023-01-10T20:13:34.471Z,98.30
2023-01-10T20:16:01.401Z,98.50
2023-01-10T20:18:28.261Z,98.50
2023-01-10T20:20:55.107Z,98.80
2023-01-10T20:23:23.471Z,98.50
2023-01-10T20:26:06.156Z,98.50
2023-01-10T20:28:34.554Z,98.50
2023-01-10T20:31:02.416Z,98.50
2023-01-10T20:33:34.240Z,98.70
2023-01-10T20:36:04.495Z,98.80
2023-01-10T20:38:32.953Z,98.80
2023-01-10T20:41:03.622Z,98.80
2023-01-10T20:43:30.465Z,98.90
2023-01-10T20:45:57.242Z,98.60
2023-01-10T20:48:24.122Z,98.90
2023-01-10T20:50:50.835Z,98.90
2023-01-10T20:53:17.618Z,98.90
2023-01-10T20:55:53.479Z,98.80
2023-01-10T20:58:25.767Z,99.10
2023-01-10T21:00:53.889Z,99.10
2023-01-10T21:03:20.547Z,98.90
2023-01-10T21:05:54.380Z,98.80
2023-01-10T21:08:22.220Z,98.80
2023-01-10T21:10:50.285Z,98.70
2023-01-10T21:13:17.864Z,98.70
2023-01-10T21:15:46.978Z,98.50
2023-01-10T21:18:15.745Z,98.50
2023-01-10T21:20:43.860Z,98.50
2023-01-10T21:23:11.794Z,98.30
2023-01-10T21:25:38.789Z,98.20
2023-01-10T21:28:09.913Z,98.20
2023-01-10T21:30:38.237Z,98.20
2023-01-10T21:33:05.798Z,98.10
2023-01-10T21:35:33.707Z,98.40
2023-01-10T21:38:00.864Z,98.70
2023-01-10T21:40:28.348Z,99.30
2023-01-10T21:42:55.379Z,99.70
2023-01-10T21:45:22.774Z,99.80
2023-01-10T21:47:50.570Z,99.90
2023-01-10T21:50:19.127Z,99.90
2023-01-10T21:52:46.833Z,99.90
2023-01-10T21:55:15.577Z,99.90
2023-01-10T21:57:42.587Z,99.90
2023-01-10T22:00:09.928Z,99.90
2023-01-10T22:02:36.773Z,99.90
2023-01-10T22:05:03.679Z,99.90
2023-01-10T22:07:30.693Z,99.90
2023-01-10T22:09:57.479Z,99.90
2023-01-10T22:12:25.059Z,99.90
2023-01-10T22:14:52.102Z,99.90
2023-01-10T22:17:18.819Z,99.90
2023-01-10T22:19:45.848Z,99.90
2023-01-10T22:22:13.829Z,99.90
2023-01-10T22:24:44.338Z,99.90
2023-01-10T22:27:11.238Z,99.90
2023-01-10T22:29:38.246Z,99.90
2023-01-10T22:32:05.179Z,99.90
2023-01-10T22:34:32.288Z,99.90
2023-01-10T22:36:59.051Z,99.90
2023-01-10T22:39:26.129Z,99.90
2023-01-10T22:41:53.557Z,99.90
2023-01-10T22:44:23.138Z,99.90
2023-01-10T22:46:51.417Z,99.90
2023-01-10T22:49:18.981Z,99.90
2023-01-10T22:51:45.853Z,99.90
2023-01-10T22:54:18.717Z,99.90
2023-01-10T22:56:46.538Z,99.90
2023-01-10T22:59:13.377Z,99.90
2023-01-10T23:01:40.180Z,99.90
2023-01-10T23:04:07.043Z,99.90
2023-01-10T23:06:33.772Z,99.90
2023-01-10T23:09:00.630Z,99.90
2023-01-10T23:11:27.695Z,99.90
2023-01-10T23:13:54.637Z,99.90
2023-01-10T23:16:28.838Z,99.90
2023-01-10T23:18:57.049Z,99.90
2023-01-10T23:21:24.920Z,99.90
2023-01-10T23:23:51.809Z,99.90
2023-01-10T23:26:18.893Z,99.90
2023-01-10T23:28:51.242Z,99.90
2023-01-10T23:31:23.057Z,99.90
2023-01-10T23:33:50.956Z,99.90
2023-01-10T23:36:18.765Z,99.90
2023-01-10T23:38:45.697Z,99.90
2023-01-10T23:41:12.969Z,99.90
2023-01-10T23:43:39.968Z,99.90
2023-01-10T23:46:07.047Z,99.90
2023-01-10T23:48:34.397Z,99.90
2023-01-10T23:51:01.136Z,99.90
2023-01-10T23:53:28.114Z,99.90
2023-01-10T23:55:54.964Z,99.90
2023-01-10T23:58:21.671Z,99.90
